Time;durP1;ratioP1;P1;durP2;ratioP2;P2;SDS_P1;SDS_P2;PMS_P1;PMS_P2;Temp;Humidity;BMP_temperature;BMP_pressure;BME280_temperature;BME280_humidity;BME280_pressure;Samples;Min_cycle;Max_cycle;Signal;HPM_P1;HPM_P2
2023/04/02 00:00:22;;;;;;;8.23;5.72;;;;;;;4.12;84.13;99964.59;10163160;29;20103;-76
2023/04/02 00:05:49;;;;;;;7.47;5.68;;;;;;;4.15;84.41;99959.94;10155103;29;20099;-76
2023/04/02 00:10:55;;;;;;;10.52;6.10;;;;;;;4.03;84.48;99967.78;10164455;29;20052;-77
2023/04/02 00:15:59;;;;;;;10.02;6.55;;;;;;;4.19;84.50;99976.56;10154950;29;20070;-76
2023/04/02 00:21:12;;;;;;;9.77;6.65;;;;;;;4.18;84.58;99982.81;10158780;29;20056;-77
2023/04/02 00:26:29;;;;;;;7.70;6.07;;;;;;;4.12;84.66;99992.03;10161849;29;20055;-78
2023/04/02 00:31:33;;;;;;;6.40;5.28;;;;;;;4.20;84.72;100004.88;10158982;29;20048;-78
2023/04/02 00:36:38;;;;;;;5.82;5.10;;;;;;;4.21;84.53;100016.34;10156548;29;20048;-77
2023/04/02 00:41:45;;;;;;;6.13;4.60;;;;;;;3.55;84.36;100022.91;10167986;29;20072;-77
2023/04/02 00:46:49;;;;;;;4.93;3.75;;;;;;;3.70;84.11;100033.50;10150093;29;20056;-77
2023/04/02 00:51:57;;;;;;;5.45;3.72;;;;;;;3.76;83.13;100032.28;10152513;29;20048;-78
2023/04/02 00:57:01;;;;;;;7.32;4.10;;;;;;;3.83;82.76;100040.75;10170538;29;20058;-77
2023/04/02 01:02:21;;;;;;;5.70;4.95;;;;;;;3.55;83.03;100050.31;10149594;29;20184;-78
2023/04/02 01:07:40;;;;;;;5.65;4.75;;;;;;;3.61;82.29;100063.22;10159526;29;20492;-78
2023/04/02 01:12:55;;;;;;;8.07;5.10;;;;;;;3.50;81.88;100060.34;10168184;29;20056;-78
2023/04/02 01:18:16;;;;;;;7.22;5.75;;;;;;;3.26;81.77;100066.09;10154814;29;20064;-78
2023/04/02 01:23:28;;;;;;;8.10;5.63;;;;;;;3.35;81.74;100074.50;10164646;29;20504;-78
2023/04/02 01:28:46;;;;;;;7.80;5.55;;;;;;;3.61;81.47;100087.13;10154558;29;20044;-78
2023/04/02 01:33:49;;;;;;;11.00;6.43;;;;;;;3.59;81.47;100099.63;10175522;29;20083;-77
2023/04/02 01:39:01;;;;;;;9.55;6.70;;;;;;;3.64;81.37;100115.31;10150136;29;20056;-77
2023/04/02 01:44:08;;;;;;;17.08;8.20;;;;;;;3.69;81.34;100118.59;10157224;29;20116;-77
2023/04/02 01:49:14;;;;;;;10.65;7.50;;;;;;;3.60;81.21;100130.59;10161731;29;20062;-77
2023/04/02 01:54:18;;;;;;;12.75;8.15;;;;;;;3.63;81.26;100135.72;10152065;29;20040;-78
2023/04/02 01:59:25;;;;;;;17.20;8.43;;;;;;;3.64;81.10;100156.03;10173288;29;20070;-78
2023/04/02 02:04:34;;;;;;;20.20;8.38;;;;;;;3.63;81.06;100162.28;10172224;29;20079;-78
2023/04/02 02:09:37;;;;;;;11.80;8.25;;;;;;;3.59;81.29;100176.66;10163011;29;20044;-78
2023/04/02 02:14:46;;;;;;;17.23;8.40;;;;;;;3.41;80.84;100178.56;10174270;29;20040;-77
2023/04/02 02:19:54;;;;;;;15.00;8.18;;;;;;;3.36;80.46;100200.97;10164752;29;20082;-78
2023/04/02 02:24:59;;;;;;;17.65;7.55;;;;;;;3.31;80.13;100211.00;10167436;29;20055;-77
2023/04/02 02:30:11;;;;;;;16.98;7.40;;;;;;;3.17;80.00;100219.69;10162579;29;20116;-77
2023/04/02 02:35:20;;;;;;;10.65;6.47;;;;;;;3.12;79.26;100227.88;10151793;29;20048;-78
2023/04/02 02:40:29;;;;;;;14.35;6.30;;;;;;;3.12;78.94;100240.31;10162787;29;20148;-78
2023/04/02 02:45:38;;;;;;;13.23;6.10;;;;;;;3.10;78.71;100248.38;10179045;29;20051;-78
2023/04/02 02:50:41;;;;;;;12.13;6.47;;;;;;;2.95;78.80;100251.78;10166834;29;20044;-78
2023/04/02 02:55:47;;;;;;;11.27;6.20;;;;;;;2.67;78.40;100266.47;10174609;29;20044;-77
2023/04/02 03:00:56;;;;;;;13.18;6.30;;;;;;;2.89;78.16;100271.53;10149781;29;20048;-77
2023/04/02 03:06:04;;;;;;;13.07;5.50;;;;;;;2.81;78.28;100284.34;10177978;29;20058;-78
2023/04/02 03:11:14;;;;;;;9.35;5.25;;;;;;;2.80;78.01;100298.56;10171993;29;20504;-77
2023/04/02 03:16:25;;;;;;;14.00;6.40;;;;;;;2.70;77.59;100294.63;10159259;29;20057;-77
2023/04/02 03:21:34;;;;;;;8.73;4.57;;;;;;;2.77;77.79;100303.97;10154884;29;20048;-77
2023/04/02 03:26:42;;;;;;;9.25;5.18;;;;;;;2.76;77.53;100320.84;10153239;29;20051;-77
2023/04/02 03:31:53;;;;;;;9.45;5.97;;;;;;;2.70;77.59;100319.34;10150598;29;20506;-78
2023/04/02 03:36:59;;;;;;;12.10;5.13;;;;;;;2.72;77.29;100343.16;10172379;29;20500;-77
2023/04/02 03:42:08;;;;;;;9.20;5.30;;;;;;;2.56;77.28;100345.69;10171777;29;20563;-77
2023/04/02 03:47:19;;;;;;;8.85;5.03;;;;;;;2.68;76.95;100361.00;10168186;29;20047;-77
2023/04/02 03:52:26;;;;;;;7.50;3.97;;;;;;;2.60;76.56;100381.72;10174910;29;20505;-77
2023/04/02 03:57:36;;;;;;;10.65;4.25;;;;;;;2.54;76.83;100393.50;10146669;29;20139;-77
2023/04/02 04:02:45;;;;;;;17.02;4.47;;;;;;;2.51;76.82;100411.31;10161384;29;20095;-78
2023/04/02 04:07:52;;;;;;;13.13;4.25;;;;;;;2.42;76.96;100414.41;10172757;29;20067;-78
2023/04/02 04:13:03;;;;;;;7.55;3.60;;;;;;;2.42;77.05;100428.53;10165920;29;20531;-77
2023/04/02 04:18:18;;;;;;;11.32;3.50;;;;;;;2.43;77.02;100438.19;10184741;29;20052;-77
2023/04/02 04:23:29;;;;;;;7.50;3.17;;;;;;;2.45;77.00;100444.28;10163679;29;20048;-77
2023/04/02 04:28:42;;;;;;;8.35;3.10;;;;;;;2.19;76.56;100448.13;10167682;29;20105;-77
2023/04/02 04:33:53;;;;;;;6.73;3.40;;;;;;;2.34;77.02;100465.13;10166506;29;20144;-77
2023/04/02 04:39:04;;;;;;;8.85;3.05;;;;;;;2.31;76.75;100476.75;10166852;29;20059;-77
2023/04/02 04:44:17;;;;;;;8.75;3.85;;;;;;;2.22;76.64;100478.94;10154433;29;20081;-77
2023/04/02 04:49:28;;;;;;;8.25;3.45;;;;;;;2.08;75.94;100493.66;10155799;29;20060;-77
2023/04/02 04:54:31;;;;;;;5.70;2.85;;;;;;;2.17;76.21;100501.22;10165848;29;20079;-77
2023/04/02 04:59:42;;;;;;;8.77;3.53;;;;;;;2.36;76.36;100516.31;10179697;29;20526;-77
2023/04/02 05:04:51;;;;;;;6.63;3.53;;;;;;;2.29;76.31;100525.44;10173913;29;20100;-77
2023/04/02 05:10:00;;;;;;;11.10;3.88;;;;;;;2.23;75.89;100537.19;10157963;29;20051;-77
2023/04/02 05:15:16;;;;;;;6.82;3.88;;;;;;;2.22;75.80;100530.16;10162617;29;20040;-77
2023/04/02 05:20:25;;;;;;;7.60;3.47;;;;;;;2.23;75.11;100549.59;10168217;29;20050;-77
2023/04/02 05:25:32;;;;;;;8.55;3.80;;;;;;;2.28;75.26;100566.16;10177417;29;20582;-77
2023/04/02 05:30:51;;;;;;;6.13;2.90;;;;;;;2.24;74.85;100575.16;10170150;29;20578;-77
2023/04/02 05:36:01;;;;;;;4.72;3.13;;;;;;;2.16;74.24;100576.34;10158261;29;20726;-77
2023/04/02 05:41:14;;;;;;;7.63;3.40;;;;;;;2.34;73.49;100590.59;10176249;29;20076;-78
2023/04/02 05:46:22;;;;;;;6.97;3.40;;;;;;;2.23;73.69;100589.34;10149669;29;20068;-77
2023/04/02 05:51:36;;;;;;;6.80;3.85;;;;;;;2.25;72.84;100616.63;10177161;29;20104;-77
2023/04/02 05:56:43;;;;;;;6.35;3.38;;;;;;;2.30;73.02;100622.59;10172502;29;20049;-77
2023/04/02 06:01:51;;;;;;;4.72;3.00;;;;;;;2.48;73.72;100640.38;10176754;29;20048;-77
2023/04/02 06:07:06;;;;;;;5.18;3.33;;;;;;;2.33;72.42;100647.22;10160264;29;20048;-77
2023/04/02 06:12:26;;;;;;;5.57;3.17;;;;;;;2.35;72.47;100655.09;10159218;29;20135;-77
2023/04/02 06:17:42;;;;;;;4.00;2.60;;;;;;;2.31;71.83;100678.22;10169925;29;20040;-77
2023/04/02 06:22:51;;;;;;;6.55;2.80;;;;;;;2.50;71.85;100678.31;10165603;29;20056;-77
2023/04/02 06:27:58;;;;;;;4.22;3.25;;;;;;;2.48;71.50;100695.22;10164353;29;20047;-77
2023/04/02 06:33:01;;;;;;;5.07;3.13;;;;;;;2.48;70.74;100716.41;10163606;29;20115;-77
2023/04/02 06:38:15;;;;;;;6.38;4.80;;;;;;;2.84;71.73;100727.28;10160195;29;20051;-77
2023/04/02 06:43:26;;;;;;;7.95;2.72;;;;;;;2.76;70.19;100738.22;10169091;29;20044;-77
2023/04/02 06:48:41;;;;;;;4.65;2.50;;;;;;;2.95;68.91;100754.19;10161768;29;20107;-77
2023/04/02 06:53:48;;;;;;;5.30;2.42;;;;;;;3.01;68.42;100763.69;10153213;29;20044;-77
2023/04/02 06:58:53;;;;;;;8.32;2.72;;;;;;;3.08;68.92;100778.44;10160020;29;20171;-77
2023/04/02 07:03:58;;;;;;;5.68;2.83;;;;;;;3.01;69.09;100780.47;10180670;29;20520;-77
2023/04/02 07:09:08;;;;;;;6.95;2.55;;;;;;;2.89;69.22;100788.97;10153134;29;20047;-78
2023/04/02 07:14:15;;;;;;;4.47;2.58;;;;;;;2.86;68.73;100805.03;10176473;29;20040;-77
2023/04/02 07:19:21;;;;;;;3.45;2.15;;;;;;;2.69;68.56;100812.81;10174670;29;20408;-77
2023/04/02 07:24:29;;;;;;;4.65;2.00;;;;;;;2.40;67.13;100836.91;10170187;29;20040;-77
2023/04/02 07:29:32;;;;;;;5.53;2.20;;;;;;;2.42;67.58;100841.31;10155762;29;20120;-77
2023/04/02 07:34:35;;;;;;;4.75;2.40;;;;;;;2.47;67.22;100850.81;10163552;29;20040;-77
2023/04/02 07:39:40;;;;;;;4.63;2.15;;;;;;;2.49;66.21;100848.06;10155939;29;20044;-77
2023/04/02 07:44:43;;;;;;;6.90;2.30;;;;;;;2.83;65.58;100872.34;10161845;29;20052;-77
2023/04/02 07:49:45;;;;;;;8.57;2.10;;;;;;;3.00;66.80;100870.78;10148970;29;20064;-77
2023/04/02 07:54:50;;;;;;;3.75;2.30;;;;;;;2.84;64.89;100891.78;10175726;29;20101;-77
2023/04/02 07:59:55;;;;;;;3.28;2.00;;;;;;;2.81;63.74;100892.78;10157013;29;20048;-77
2023/04/02 08:04:58;;;;;;;8.10;1.73;;;;;;;3.03;65.36;100907.81;10149869;29;20040;-77
2023/04/02 08:10:02;;;;;;;2.30;1.50;;;;;;;3.11;63.91;100913.69;10159296;29;20083;-77
2023/04/02 08:15:06;;;;;;;1.98;1.33;;;;;;;3.27;63.65;100924.53;10150218;29;20036;-77
2023/04/02 08:20:14;;;;;;;3.42;1.75;;;;;;;3.22;62.89;100926.50;10162834;29;20048;-77
2023/04/02 08:25:19;;;;;;;5.80;1.60;;;;;;;3.53;63.25;100936.69;10162045;29;20046;-77
2023/04/02 08:30:22;;;;;;;4.15;1.48;;;;;;;3.57;63.14;100938.31;10146921;29;20033;-77
2023/04/02 08:35:25;;;;;;;5.13;2.28;;;;;;;3.62;62.22;100954.03;10172823;29;20041;-77
2023/04/02 08:40:33;;;;;;;6.90;1.90;;;;;;;3.82;62.05;100951.38;10154939;29;20050;-77
2023/04/02 08:45:47;;;;;;;2.35;1.85;;;;;;;4.04;62.07;100959.25;10148737;29;20092;-77
2023/04/02 08:50:50;;;;;;;2.75;1.75;;;;;;;4.14;59.32;100978.31;10149455;29;20051;-77
2023/04/02 08:56:04;;;;;;;4.88;2.08;;;;;;;4.20;58.45;100995.78;10155310;29;20124;-76
2023/04/02 09:01:11;;;;;;;5.45;1.70;;;;;;;4.42;58.07;101001.03;10152231;29;20115;-77
2023/04/02 09:06:18;;;;;;;6.85;2.30;;;;;;;4.64;57.21;101007.09;10174631;29;20044;-76
2023/04/02 09:11:26;;;;;;;3.30;1.52;;;;;;;4.52;57.02;101013.81;10154377;29;20080;-76
2023/04/02 09:16:42;;;;;;;2.92;1.92;;;;;;;4.41;55.73;101013.44;10171555;29;20073;-77
2023/04/02 09:21:55;;;;;;;2.13;1.30;;;;;;;4.80;55.95;101016.09;10155195;29;20049;-76
2023/04/02 09:27:00;;;;;;;4.30;1.88;;;;;;;5.00;54.67;101032.94;10166064;29;20075;-77
2023/04/02 09:32:17;;;;;;;3.90;1.52;;;;;;;4.86;55.34;101038.03;10156652;29;20500;-77
2023/04/02 09:37:24;;;;;;;6.32;1.55;;;;;;;4.84;55.35;101041.63;10140035;29;20057;-77
2023/04/02 09:42:33;;;;;;;2.55;1.40;;;;;;;5.25;54.51;101054.81;10162053;29;20472;-76
2023/04/02 09:47:37;;;;;;;5.50;1.40;;;;;;;5.59;53.25;101057.63;10160592;29;20040;-76
2023/04/02 09:52:43;;;;;;;2.13;1.40;;;;;;;5.88;53.14;101069.50;10157356;29;20403;-77
2023/04/02 09:57:50;;;;;;;2.50;1.45;;;;;;;5.96;53.09;101075.31;10162030;29;20075;-76
2023/04/02 10:03:05;;;;;;;3.55;1.65;;;;;;;5.80;53.03;101085.03;10155851;29;20049;-76
2023/04/02 10:08:17;;;;;;;2.50;1.20;;;;;;;6.28;51.93;101089.66;10153413;29;20048;-76
2023/04/02 10:13:26;;;;;;;1.90;1.70;;;;;;;6.21;51.41;101104.25;10158541;29;20495;-77
2023/04/02 10:18:39;;;;;;;4.60;1.55;;;;;;;6.56;50.93;101101.56;10159167;29;20281;-77
2023/04/02 10:23:41;;;;;;;;;;;;;;;6.62;50.72;101106.56;10154133;29;20076;-76
2023/04/02 10:28:59;;;;;;;3.22;1.50;;;;;;;6.51;50.85;101112.47;10162921;29;19930;-77
2023/04/02 10:34:10;;;;;;;6.13;2.05;;;;;;;6.81;51.30;101122.47;10147209;29;20124;-77
2023/04/02 10:39:18;;;;;;;8.88;3.33;;;;;;;6.93;50.99;101129.84;10161850;29;20036;-77
2023/04/02 10:44:35;;;;;;;2.35;1.73;;;;;;;7.00;49.97;101138.41;10157019;29;20068;-77
2023/04/02 10:49:42;;;;;;;5.90;1.80;;;;;;;7.04;49.68;101135.47;10154815;29;20120;-77
2023/04/02 10:54:48;;;;;;;8.70;2.50;;;;;;;7.46;50.80;101152.78;10158720;29;20096;-77
2023/04/02 10:59:56;;;;;;;3.33;1.90;;;;;;;6.90;50.56;101156.72;10147517;29;20128;-77
2023/04/02 11:05:03;;;;;;;5.45;1.85;;;;;;;7.23;50.42;101170.06;10159290;29;20045;-77
2023/04/02 11:10:07;;;;;;;2.50;1.60;;;;;;;7.75;49.56;101177.00;10161394;29;20049;-77
2023/04/02 11:15:17;;;;;;;1.63;1.33;;;;;;;7.35;48.03;101183.72;10167322;29;20048;-76
2023/04/02 11:20:43;;;;;;;3.65;1.40;;;;;;;7.25;49.07;101188.72;10162803;29;20044;-76
2023/04/02 11:25:47;;;;;;;4.43;1.75;;;;;;;7.15;49.01;101190.16;10155981;29;20048;-76
2023/04/02 11:30:51;;;;;;;2.20;1.60;;;;;;;7.60;48.47;101185.91;10157187;29;20052;-76
2023/04/02 11:35:54;;;;;;;4.05;1.70;;;;;;;10.45;43.69;101205.03;10156055;29;20059;-76
2023/04/02 11:40:58;;;;;;;2.63;1.42;;;;;;;9.13;44.56;101206.34;10152630;29;20092;-76
2023/04/02 11:46:04;;;;;;;5.10;1.77;;;;;;;8.41;46.42;101208.00;10160067;29;20052;-76
2023/04/02 11:51:35;;;;;;;3.33;1.80;;;;;;;8.43;46.68;101207.91;10160847;29;20416;-76
2023/04/02 11:56:46;;;;;;;3.97;1.48;;;;;;;8.26;46.75;101204.41;10147023;29;20119;-76
2023/04/02 12:02:09;;;;;;;2.72;1.52;;;;;;;8.57;47.11;101211.50;10158381;29;20148;-76
2023/04/02 12:07:33;;;;;;;2.40;1.67;;;;;;;8.81;46.36;101205.66;10143478;29;20051;-76
2023/04/02 12:12:38;;;;;;;6.03;2.78;;;;;;;10.71;43.95;101227.44;10161680;29;20045;-77
2023/04/02 12:17:43;;;;;;;4.15;1.83;;;;;;;10.26;41.94;101238.50;10152495;29;20093;-76
2023/04/02 12:22:50;;;;;;;2.70;1.88;;;;;;;8.80;44.47;101254.81;10147018;29;20736;-77
2023/04/02 12:28:04;;;;;;;3.45;1.70;;;;;;;8.98;45.61;101248.34;10153807;29;20048;-77
2023/04/02 12:33:29;;;;;;;4.25;1.90;;;;;;;11.47;41.80;101258.94;10160449;29;20044;-77
2023/04/02 12:38:35;;;;;;;2.50;1.52;;;;;;;10.10;42.86;101270.00;10165627;29;20084;-77
2023/04/02 12:43:38;;;;;;;3.85;1.45;;;;;;;8.82;44.47;101269.00;10151307;29;20515;-77
2023/04/02 12:48:43;;;;;;;7.38;1.45;;;;;;;8.94;46.00;101273.63;10150678;29;20056;-77
2023/04/02 12:53:50;;;;;;;2.35;1.25;;;;;;;10.93;42.37;101281.44;10149583;29;20044;-77
2023/04/02 12:58:55;;;;;;;2.63;1.25;;;;;;;11.59;41.34;101290.31;10160890;29;20574;-80
2023/04/02 13:04:04;;;;;;;6.45;1.58;;;;;;;11.85;40.49;101307.31;10149065;29;20044;-77
2023/04/02 13:09:27;;;;;;;4.45;1.35;;;;;;;10.96;40.43;101293.81;10154301;29;20054;-76
2023/04/02 13:14:31;;;;;;;4.95;1.70;;;;;;;12.06;39.93;101287.88;10178776;29;20048;-76
2023/04/02 13:19:35;;;;;;;3.15;1.48;;;;;;;11.22;41.09;101301.00;10156267;29;20622;-76
2023/04/02 13:24:40;;;;;;;4.63;1.33;;;;;;;11.21;40.54;101291.19;10164509;29;20041;-76
2023/04/02 13:29:42;;;;;;;1.58;1.20;;;;;;;11.96;40.17;101287.69;10148238;29;20052;-76
2023/04/02 13:34:47;;;;;;;2.80;1.50;;;;;;;11.69;39.33;101283.34;10163631;29;20728;-77
2023/04/02 13:39:49;;;;;;;2.28;1.40;;;;;;;12.70;38.91;101282.25;10190215;29;20052;-76
2023/04/02 13:44:52;;;;;;;2.55;1.40;;;;;;;13.15;36.68;101283.25;10165433;29;20057;-76
2023/04/02 13:49:57;;;;;;;2.53;1.27;;;;;;;13.31;36.59;101285.63;10166212;29;20393;-78
2023/04/02 13:55:00;;;;;;;4.55;1.20;;;;;;;13.55;35.81;101284.69;10148678;29;20096;-76
2023/04/02 14:00:04;;;;;;;3.83;1.33;;;;;;;14.01;35.84;101286.38;10172897;29;20465;-77
2023/04/02 14:05:17;;;;;;;3.90;1.30;;;;;;;13.42;36.06;101287.50;10167001;29;20428;-76
2023/04/02 14:10:32;;;;;;;2.65;1.20;;;;;;;12.83;36.25;101294.69;10162339;29;20443;-78
2023/04/02 14:15:47;;;;;;;2.85;1.30;;;;;;;13.41;36.52;101288.47;10157480;29;20036;-77
2023/04/02 14:21:05;;;;;;;2.22;1.20;;;;;;;13.61;35.49;101290.47;10161316;29;20048;-76
2023/04/02 14:26:15;;;;;;;2.97;1.63;;;;;;;13.55;36.16;101284.69;10155874;29;20040;-78
2023/04/02 14:31:27;;;;;;;3.50;1.50;;;;;;;13.81;35.72;101302.38;10167493;29;20456;-76
2023/04/02 14:36:44;;;;;;;2.47;1.10;;;;;;;13.75;36.26;101305.56;10153644;29;20047;-76
2023/04/02 14:41:52;;;;;;;2.38;1.10;;;;;;;12.71;36.60;101302.84;10155342;29;20321;-76
2023/04/02 14:47:02;;;;;;;1.77;1.17;;;;;;;12.89;38.25;101304.16;10158286;29;20044;-76
2023/04/02 14:52:11;;;;;;;2.75;1.40;;;;;;;13.57;35.71;101302.47;10147856;29;20111;-76
2023/04/02 14:57:20;;;;;;;2.42;1.23;;;;;;;13.54;35.23;101301.88;10158412;29;20048;-76
2023/04/02 15:02:34;;;;;;;2.13;1.17;;;;;;;13.33;35.79;101304.38;10150593;29;20036;-76
2023/04/02 15:07:44;;;;;;;3.25;2.10;;;;;;;13.51;36.06;101299.41;10168528;29;20102;-76
2023/04/02 15:12:48;;;;;;;3.00;1.00;;;;;;;13.47;35.52;101299.66;10170072;29;20127;-76
2023/04/02 15:17:51;;;;;;;1.98;1.23;;;;;;;11.91;38.24;101317.63;10150504;29;20088;-76
2023/04/02 15:23:08;;;;;;;1.92;0.85;;;;;;;11.53;38.90;101323.06;10153176;29;20119;-76
2023/04/02 15:28:25;;;;;;;1.95;1.23;;;;;;;12.69;37.58;101315.56;10148727;28;20060;-76
2023/04/02 15:33:41;;;;;;;3.42;1.13;;;;;;;13.27;35.61;101316.50;10150341;29;20136;-76
2023/04/02 15:38:50;;;;;;;1.58;1.00;;;;;;;14.02;35.48;101323.25;10155031;29;20531;-77
2023/04/02 15:44:01;;;;;;;5.38;1.00;;;;;;;14.26;34.99;101334.75;10159448;29;20049;-76
2023/04/02 15:49:12;;;;;;;3.78;1.60;;;;;;;14.19;35.03;101338.09;10146638;29;20135;-77
2023/04/02 15:54:33;;;;;;;2.50;1.13;;;;;;;12.28;37.13;101354.50;10158571;29;20547;-76
2023/04/02 16:00:04;;;;;;;2.90;0.98;;;;;;;11.16;38.85;101365.97;10147792;29;20403;-76
2023/04/02 16:05:20;;;;;;;2.88;0.82;;;;;;;10.56;39.73;101364.56;10155449;29;20057;-76
2023/04/02 16:10:31;;;;;;;1.80;0.98;;;;;;;10.16;40.77;101367.09;10151340;29;20040;-76
2023/04/02 16:15:49;;;;;;;3.58;1.30;;;;;;;9.69;41.77;101372.75;10149489;29;20109;-76
2023/04/02 16:20:55;;;;;;;2.65;1.25;;;;;;;9.79;42.18;101373.91;10154433;29;20131;-76
2023/04/02 16:26:09;;;;;;;4.25;2.10;;;;;;;9.94;42.17;101380.16;10139835;29;20532;-76
2023/04/02 16:31:19;;;;;;;4.07;1.20;;;;;;;9.65;42.44;101385.50;10151380;29;20049;-76
2023/04/02 16:36:35;;;;;;;2.40;1.23;;;;;;;9.12;42.32;101394.94;10150270;29;20127;-76
2023/04/02 16:41:52;;;;;;;1.80;0.80;;;;;;;9.02;42.85;101397.31;10145130;29;20041;-76
2023/04/02 16:47:04;;;;;;;2.05;1.20;;;;;;;9.22;43.11;101406.84;10164594;29;20095;-76
2023/04/02 16:52:29;;;;;;;4.40;1.10;;;;;;;10.19;40.98;101411.69;10159796;29;20425;-76
2023/04/02 16:57:41;;;;;;;2.40;1.15;;;;;;;10.59;39.91;101412.72;10153364;29;20040;-76
2023/04/02 17:03:01;;;;;;;1.98;0.70;;;;;;;9.47;41.00;101425.03;10162941;29;20081;-76
2023/04/02 17:08:22;;;;;;;2.22;1.10;;;;;;;9.08;42.63;101438.97;10152240;29;20051;-76
2023/04/02 17:13:38;;;;;;;4.43;1.13;;;;;;;8.93;43.06;101443.38;10162555;29;20040;-76
2023/04/02 17:18:43;;;;;;;3.47;1.30;;;;;;;8.79;43.54;101446.84;10174087;29;20571;-76
2023/04/02 17:23:53;;;;;;;1.23;0.77;;;;;;;8.53;44.00;101450.13;10174316;29;20052;-76
2023/04/02 17:29:05;;;;;;;3.47;1.17;;;;;;;8.29;44.18;101457.69;10163049;29;20524;-76
2023/04/02 17:34:13;;;;;;;2.67;0.95;;;;;;;8.23;45.00;101471.38;10151641;29;20100;-76
2023/04/02 17:39:21;;;;;;;2.20;0.90;;;;;;;8.26;44.98;101480.13;10160001;29;20032;-76
2023/04/02 17:44:44;;;;;;;1.65;1.00;;;;;;;8.16;44.99;101487.78;10153658;29;20085;-76
2023/04/02 17:49:53;;;;;;;;;;;;;;;7.92;45.14;101483.72;10151959;29;20493;-76
2023/04/02 17:55:05;;;;;;;2.72;1.10;;;;;;;7.79;45.61;101490.66;10156963;29;20014;-76
2023/04/02 18:00:35;;;;;;;4.07;1.35;;;;;;;7.66;45.79;101499.31;10155004;29;20119;-76
2023/04/02 18:05:44;;;;;;;2.72;1.15;;;;;;;7.63;45.95;101509.31;10151975;29;20036;-76
2023/04/02 18:10:58;;;;;;;2.42;1.20;;;;;;;7.60;46.71;101515.69;10164506;29;20072;-76
2023/04/02 18:16:13;;;;;;;3.33;1.40;;;;;;;7.50;46.60;101512.59;10155245;29;20112;-76
2023/04/02 18:21:24;;;;;;;4.22;1.77;;;;;;;7.37;46.69;101527.50;10154544;29;20036;-76
2023/04/02 18:26:38;;;;;;;2.78;1.10;;;;;;;7.30;47.37;101536.78;10159348;29;20048;-76
2023/04/02 18:31:50;;;;;;;2.55;1.38;;;;;;;7.20;47.32;101557.75;10163412;29;20457;-76
2023/04/02 18:37:04;;;;;;;4.97;3.35;;;;;;;7.13;47.60;101551.00;10163960;29;20075;-76
2023/04/02 18:42:19;;;;;;;3.95;1.20;;;;;;;6.97;47.53;101561.53;10147830;29;20056;-76
2023/04/02 18:47:30;;;;;;;2.42;1.60;;;;;;;6.95;48.03;101562.53;10155862;29;20055;-76
2023/04/02 18:52:34;;;;;;;3.85;1.20;;;;;;;6.93;48.34;101567.09;10157206;29;20048;-76
2023/04/02 18:57:41;;;;;;;4.03;1.45;;;;;;;6.91;48.29;101580.53;10163287;29;20048;-76
2023/04/02 19:02:48;;;;;;;2.15;1.40;;;;;;;6.95;48.32;101589.25;10157194;29;20153;-76
2023/04/02 19:07:59;;;;;;;2.78;1.25;;;;;;;6.96;48.63;101597.19;10152441;29;20402;-75
2023/04/02 19:13:01;;;;;;;1.95;0.80;;;;;;;6.97;48.55;101596.25;10151021;29;20508;-76
2023/04/02 19:18:16;;;;;;;3.70;2.15;;;;;;;6.95;48.89;101610.63;10155050;29;20091;-76
2023/04/02 19:23:37;;;;;;;5.80;3.05;;;;;;;6.91;48.81;101609.03;10148565;29;20080;-76
2023/04/02 19:28:48;;;;;;;7.68;3.72;;;;;;;6.90;49.11;101626.00;10152560;29;20087;-77
2023/04/02 19:33:59;;;;;;;6.78;2.65;;;;;;;6.90;48.94;101631.34;10158930;29;20056;-76
2023/04/02 19:39:22;;;;;;;5.60;2.17;;;;;;;6.89;49.11;101634.97;10162523;29;20393;-76
2023/04/02 19:44:25;;;;;;;2.28;1.20;;;;;;;6.81;49.00;101646.81;10154881;29;20134;-76
2023/04/02 19:49:32;;;;;;;5.32;2.17;;;;;;;6.73;48.84;101651.63;10157277;29;20060;-76
2023/04/02 19:54:35;;;;;;;4.32;2.60;;;;;;;6.75;49.31;101655.09;10164002;29;20412;-77
2023/04/02 19:59:40;;;;;;;4.32;2.28;;;;;;;6.65;49.22;101650.25;10157560;29;20116;-77
2023/04/02 20:04:44;;;;;;;4.90;1.63;;;;;;;6.47;49.19;101667.94;10146024;29;20457;-77
2023/04/02 20:09:47;;;;;;;3.45;1.67;;;;;;;6.24;49.71;101669.78;10159706;29;20582;-77
2023/04/02 20:14:49;;;;;;;4.03;1.40;;;;;;;6.13;50.10;101678.25;10152711;29;20536;-77
2023/04/02 20:19:54;;;;;;;5.05;1.27;;;;;;;5.97;50.18;101684.28;10147362;29;20064;-77
2023/04/02 20:24:57;;;;;;;2.40;1.35;;;;;;;5.85;50.42;101681.19;10156051;29;20097;-77
2023/04/02 20:30:00;;;;;;;4.10;1.50;;;;;;;5.76;50.86;101689.56;10150382;29;20944;-77
2023/04/02 20:35:04;;;;;;;3.85;1.45;;;;;;;5.64;50.92;101701.56;10151893;29;20547;-76
2023/04/02 20:40:08;;;;;;;5.82;1.20;;;;;;;5.52;51.44;101711.88;10153694;29;20415;-76
2023/04/02 20:45:11;;;;;;;3.92;1.33;;;;;;;5.41;51.50;101713.16;10154568;29;20044;-77
2023/04/02 20:50:16;;;;;;;2.08;1.17;;;;;;;5.29;51.65;101718.91;10153246;29;20040;-77
2023/04/02 20:55:19;;;;;;;2.03;1.17;;;;;;;5.23;51.89;101719.16;10154516;29;20082;-77
2023/04/02 21:00:22;;;;;;;2.97;1.20;;;;;;;5.15;52.06;101732.75;10154518;29;20048;-77
2023/04/02 21:05:26;;;;;;;8.07;1.33;;;;;;;5.05;52.24;101742.91;10154755;29;20108;-76
2023/04/02 21:10:29;;;;;;;5.00;2.28;;;;;;;4.82;52.26;101738.34;10155772;29;20525;-76
2023/04/02 21:15:32;;;;;;;4.68;2.03;;;;;;;4.82;52.48;101745.47;10146374;29;20123;-77
2023/04/02 21:20:37;;;;;;;7.70;2.45;;;;;;;4.76;52.59;101751.03;10159179;29;20525;-78
2023/04/02 21:25:40;;;;;;;4.50;1.65;;;;;;;4.74;52.72;101756.38;10145607;29;20064;-77
2023/04/02 21:30:42;;;;;;;6.25;2.00;;;;;;;4.61;53.03;101763.94;10153334;29;20050;-76
2023/04/02 21:35:47;;;;;;;3.10;1.17;;;;;;;4.58;52.95;101763.16;10154577;29;20047;-77
2023/04/02 21:40:50;;;;;;;2.85;1.00;;;;;;;4.49;52.83;101775.00;10154374;29;20052;-77
2023/04/02 21:45:58;;;;;;;2.20;0.85;;;;;;;4.49;53.11;101784.78;10171757;29;20104;-77
2023/04/02 21:51:07;;;;;;;7.60;1.20;;;;;;;4.39;53.24;101786.88;10160962;29;20055;-77
2023/04/02 21:56:13;;;;;;;5.25;1.02;;;;;;;4.32;53.48;101795.97;10153321;29;20040;-77
2023/04/02 22:01:16;;;;;;;3.22;0.80;;;;;;;4.27;53.75;101800.56;10160466;29;20488;-77
2023/04/02 22:06:32;;;;;;;2.83;0.90;;;;;;;4.16;54.05;101800.91;10157777;29;20052;-77
2023/04/02 22:11:37;;;;;;;4.95;1.17;;;;;;;4.10;54.22;101799.31;10154548;29;20119;-77
2023/04/02 22:16:40;;;;;;;2.42;1.00;;;;;;;3.95;54.72;101808.66;10160437;29;20467;-77
2023/04/02 22:21:45;;;;;;;4.57;1.13;;;;;;;3.91;54.75;101820.28;10175598;29;20502;-77
2023/04/02 22:26:48;;;;;;;1.85;0.93;;;;;;;3.87;54.47;101823.97;10179292;29;20072;-77
2023/04/02 22:31:51;;;;;;;4.22;1.27;;;;;;;3.80;54.44;101825.06;10163698;29;20419;-76
2023/04/02 22:36:56;;;;;;;3.10;1.27;;;;;;;3.75;54.60;101836.75;10148848;29;20041;-77
2023/04/02 22:41:58;;;;;;;3.92;0.90;;;;;;;3.68;54.68;101841.38;10162111;29;20083;-77
2023/04/02 22:47:01;;;;;;;4.72;1.25;;;;;;;3.58;54.87;101840.75;10154474;29;20155;-77
2023/04/02 22:52:07;;;;;;;5.07;1.38;;;;;;;3.51;55.10;101855.13;10156710;29;20044;-76
2023/04/02 22:57:10;;;;;;;2.22;1.05;;;;;;;3.35;55.53;101852.03;10160519;29;20075;-76
2023/04/02 23:02:13;;;;;;;4.00;1.13;;;;;;;3.35;55.58;101860.00;10149856;29;20056;-77
2023/04/02 23:07:17;;;;;;;2.55;1.20;;;;;;;3.32;55.79;101868.06;10160706;29;20571;-75
2023/04/02 23:12:20;;;;;;;5.75;1.77;;;;;;;3.28;55.68;101875.22;10166996;29;20084;-77
2023/04/02 23:17:23;;;;;;;2.45;1.17;;;;;;;3.16;55.87;101880.88;10166419;29;20044;-78
2023/04/02 23:22:28;;;;;;;2.35;1.10;;;;;;;3.09;55.67;101881.94;10168892;29;20493;-76
2023/04/02 23:27:31;;;;;;;4.53;1.20;;;;;;;3.03;55.54;101893.59;10155578;29;20153;-77
2023/04/02 23:32:34;;;;;;;4.13;1.40;;;;;;;2.99;55.74;101896.34;10150593;29;20100;-76
2023/04/02 23:37:38;;;;;;;3.17;1.25;;;;;;;2.93;56.02;101902.69;10155183;29;20048;-77
2023/04/02 23:42:41;;;;;;;4.15;1.38;;;;;;;2.89;56.12;101905.50;10174118;29;20047;-77
2023/04/02 23:47:44;;;;;;;4.10;1.00;;;;;;;2.72;56.37;101900.59;10162337;29;20052;-77
2023/04/02 23:52:48;;;;;;;3.10;1.17;;;;;;;2.69;56.73;101912.16;10166366;29;20043;-76